Time;durP1;ratioP1;P1;durP2;ratioP2;P2;SDS_P1;SDS_P2;PMS_P1;PMS_P2;Temp;Humidity;BMP_temperature;BMP_pressure;BME280_temperature;BME280_humidity;BME280_pressure;Samples;Min_cycle;Max_cycle;Signal;HPM_P1;HPM_P2
2022/05/09 00:00:11;;;;;;;18.15;4.72;;;8.60;99.90;;;;;;5054004;28;20040;-71
2022/05/09 00:02:36;;;;;;;18.58;4.18;;;8.60;99.90;;;;;;5053598;28;20067;-71
2022/05/09 00:05:02;;;;;;;20.15;4.55;;;8.60;99.90;;;;;;5054632;28;20072;-71
2022/05/09 00:07:28;;;;;;;14.98;4.82;;;8.60;99.90;;;;;;5054400;28;20076;-72
2022/05/09 00:09:54;;;;;;;11.88;4.47;;;8.60;99.90;;;;;;5054483;28;20048;-71
2022/05/09 00:12:20;;;;;;;16.83;4.50;;;8.60;99.90;;;;;;5053906;28;20116;-71
2022/05/09 00:14:45;;;;;;;10.18;3.90;;;8.50;99.90;;;;;;5054685;28;20115;-71
2022/05/09 00:17:11;;;;;;;17.52;4.40;;;8.50;99.90;;;;;;5055025;28;20086;-71
2022/05/09 00:19:36;;;;;;;14.88;4.07;;;8.50;99.90;;;;;;5054618;28;20037;-71
2022/05/09 00:22:02;;;;;;;14.05;5.53;;;8.50;99.90;;;;;;5053297;28;20099;-71
2022/05/09 00:24:29;;;;;;;16.52;4.78;;;8.50;99.90;;;;;;5054637;28;20486;-71
2022/05/09 00:26:55;;;;;;;13.43;4.82;;;8.50;99.90;;;;;;5053235;28;20061;-71
2022/05/09 00:29:21;;;;;;;14.82;4.50;;;8.40;99.90;;;;;;5053005;28;20067;-71
2022/05/09 00:31:49;;;;;;;13.13;5.03;;;8.40;99.90;;;;;;5054662;28;20045;-71
2022/05/09 00:34:17;;;;;;;12.90;4.35;;;8.30;99.90;;;;;;5054687;28;20414;-72
2022/05/09 00:36:43;;;;;;;11.75;4.90;;;8.30;99.90;;;;;;5053027;28;20535;-71
2022/05/09 00:39:09;;;;;;;14.93;4.78;;;8.30;99.90;;;;;;5054785;28;20037;-71
2022/05/09 00:41:37;;;;;;;18.50;5.47;;;8.20;99.90;;;;;;5053251;28;20052;-71
2022/05/09 00:44:07;;;;;;;18.40;4.78;;;8.20;99.90;;;;;;5053194;28;20402;-71
2022/05/09 00:46:33;;;;;;;13.80;4.85;;;8.20;99.90;;;;;;5053024;28;20056;-71
2022/05/09 00:49:11;;;;;;;11.23;4.60;;;8.20;99.90;;;;;;5053613;28;20091;-71
2022/05/09 00:51:38;;;;;;;11.00;4.97;;;8.20;99.90;;;;;;5053903;28;20546;-71
2022/05/09 00:54:05;;;;;;;13.70;5.75;;;8.10;99.90;;;;;;5054460;28;20068;-71
2022/05/09 00:57:01;;;;;;;13.32;5.32;;;8.10;99.90;;;;;;5054268;28;20056;-71
2022/05/09 00:59:32;;;;;;;17.63;4.75;;;8.10;99.90;;;;;;5050744;28;20053;-71
2022/05/09 01:01:57;;;;;;;15.77;4.38;;;8.10;99.90;;;;;;5052869;28;20059;-71
2022/05/09 01:04:26;;;;;;;24.67;5.70;;;8.10;99.90;;;;;;5054635;28;20041;-71
2022/05/09 01:06:54;;;;;;;16.88;6.38;;;8.10;99.90;;;;;;5056845;28;20049;-71
2022/05/09 01:09:19;;;;;;;17.02;4.88;;;8.10;99.90;;;;;;5058145;28;20044;-71
2022/05/09 01:11:47;;;;;;;16.80;5.50;;;8.10;99.90;;;;;;5057951;28;20037;-71
2022/05/09 01:14:17;;;;;;;14.23;5.00;;;8.10;99.90;;;;;;5058114;28;20033;-71
2022/05/09 01:16:43;;;;;;;13.95;4.82;;;8.10;99.90;;;;;;5057199;28;20509;-71
2022/05/09 01:19:27;;;;;;;11.85;4.40;;;8.10;99.90;;;;;;5058174;28;20040;-71
2022/05/09 01:21:53;;;;;;;14.88;5.38;;;8.10;99.90;;;;;;5056869;28;20045;-71
2022/05/09 01:24:22;;;;;;;16.50;5.20;;;8.10;99.90;;;;;;5056766;28;20128;-71
2022/05/09 01:26:48;;;;;;;15.63;5.50;;;8.00;99.90;;;;;;5058036;28;20051;-71
2022/05/09 01:29:21;;;;;;;16.60;5.20;;;8.00;99.90;;;;;;5057125;28;20045;-71
2022/05/09 01:31:49;;;;;;;14.52;5.10;;;8.00;99.90;;;;;;5058306;28;20081;-74
2022/05/09 01:34:16;;;;;;;13.82;5.20;;;8.00;99.90;;;;;;5058251;28;20041;-74
2022/05/09 01:36:42;;;;;;;16.77;4.97;;;8.00;99.90;;;;;;5058426;28;20033;-74
2022/05/09 01:39:11;;;;;;;16.20;5.90;;;8.00;99.90;;;;;;5058752;28;20045;-73
2022/05/09 01:41:41;;;;;;;15.00;6.20;;;8.00;99.90;;;;;;5057006;28;20041;-73
2022/05/09 01:44:07;;;;;;;13.68;4.75;;;8.00;99.90;;;;;;5058966;28;20037;-74
2022/05/09 01:46:34;;;;;;;10.90;4.30;;;8.00;99.90;;;;;;5040610;28;20068;-74
2022/05/09 01:51:46;;;;;;;18.35;5.32;;;7.90;99.90;;;;;;5058379;28;20077;-74
2022/05/09 01:54:13;;;;;;;12.18;5.35;;;7.90;99.90;;;;;;5057320;28;20122;-74
2022/05/09 01:56:41;;;;;;;15.20;4.97;;;7.90;99.90;;;;;;5058462;28;20048;-74
2022/05/09 01:59:08;;;;;;;15.85;5.40;;;7.90;99.90;;;;;;5058198;28;20094;-73
2022/05/09 02:01:37;;;;;;;12.73;5.55;;;7.90;99.90;;;;;;5057730;28;20567;-74
2022/05/09 02:04:04;;;;;;;20.50;6.38;;;7.80;99.90;;;;;;5057134;28;20045;-73
2022/05/09 02:06:29;;;;;;;24.65;6.03;;;7.80;99.90;;;;;;5058328;28;20041;-74
2022/05/09 02:08:55;;;;;;;15.75;5.47;;;7.80;99.90;;;;;;5058351;28;20037;-74
2022/05/09 02:11:20;;;;;;;17.08;6.10;;;7.80;99.90;;;;;;5057792;28;20144;-74
2022/05/09 02:13:46;;;;;;;15.88;5.32;;;7.80;99.90;;;;;;5056927;28;20044;-74
2022/05/09 02:16:12;;;;;;;19.90;6.47;;;7.80;99.90;;;;;;5058437;28;20068;-74
2022/05/09 02:18:38;;;;;;;21.48;5.18;;;7.80;99.90;;;;;;5058607;28;20037;-73
2022/05/09 02:21:05;;;;;;;21.92;6.60;;;7.80;99.90;;;;;;5057372;28;20049;-74
2022/05/09 02:23:31;;;;;;;20.17;6.50;;;7.70;99.90;;;;;;5057920;28;20041;-74
2022/05/09 02:25:57;;;;;;;16.95;5.95;;;7.80;99.90;;;;;;5058024;28;20043;-74
2022/05/09 02:28:22;;;;;;;18.38;6.88;;;7.80;99.90;;;;;;5056554;28;20045;-73
2022/05/09 02:30:48;;;;;;;14.80;5.40;;;7.70;99.90;;;;;;5057788;28;20500;-74
2022/05/09 02:33:15;;;;;;;19.02;6.10;;;7.70;99.90;;;;;;5056649;28;20502;-74
2022/05/09 02:35:41;;;;;;;11.15;6.07;;;7.70;99.90;;;;;;5055035;28;20520;-71
2022/05/09 02:38:07;;;;;;;17.83;6.75;;;7.60;99.90;;;;;;5055262;28;20141;-71
2022/05/09 02:40:33;;;;;;;22.10;6.88;;;7.60;99.90;;;;;;5056764;28;20041;-71
2022/05/09 02:42:59;;;;;;;12.40;6.10;;;7.60;99.90;;;;;;5056090;28;20044;-71
2022/05/09 02:45:26;;;;;;;14.43;6.57;;;7.60;99.90;;;;;;5056465;28;20033;-71
2022/05/09 02:47:53;;;;;;;18.13;6.18;;;7.60;99.90;;;;;;5056219;28;20502;-71
2022/05/09 02:50:21;;;;;;;17.48;6.50;;;7.50;99.90;;;;;;5056570;28;20091;-71
2022/05/09 02:52:51;;;;;;;17.63;5.70;;;7.50;99.90;;;;;;5056631;28;20045;-71
2022/05/09 02:55:18;;;;;;;16.60;5.93;;;7.50;99.90;;;;;;5054945;28;20124;-71
2022/05/09 02:57:44;;;;;;;15.90;5.60;;;7.50;99.90;;;;;;5055825;28;20079;-71
2022/05/09 03:00:22;;;;;;;12.38;5.40;;;7.50;99.90;;;;;;5054426;28;20049;-71
2022/05/09 03:05:34;;;;;;;16.55;5.50;;;7.50;99.90;;;;;;5056092;28;20053;-71
2022/05/09 03:08:00;;;;;;;14.23;5.50;;;7.40;99.90;;;;;;5055661;28;20037;-71
2022/05/09 03:10:28;;;;;;;14.88;6.03;;;7.40;99.90;;;;;;5055395;28;20066;-71
2022/05/09 03:12:59;;;;;;;18.30;6.05;;;7.40;99.90;;;;;;5055801;28;20041;-71
2022/05/09 03:15:25;;;;;;;14.20;6.70;;;7.30;99.90;;;;;;5038160;28;20041;-71
2022/05/09 03:17:50;;;;;;;16.40;6.22;;;7.20;99.90;;;;;;5055164;28;20041;-72
2022/05/09 03:20:17;;;;;;;16.38;6.03;;;7.20;99.90;;;;;;5055652;28;20043;-71
2022/05/09 03:22:42;;;;;;;18.83;6.70;;;7.20;99.90;;;;;;5054325;28;20414;-71
2022/05/09 03:25:08;;;;;;;16.52;6.72;;;7.20;99.90;;;;;;5054554;28;20189;-71
2022/05/09 03:27:34;;;;;;;11.00;6.05;;;7.20;99.90;;;;;;5055154;28;20064;-71
2022/05/09 03:29:59;;;;;;;19.27;7.35;;;7.20;99.90;;;;;;5054733;28;20041;-71
2022/05/09 03:32:25;;;;;;;16.95;6.75;;;7.10;99.90;;;;;;5054226;28;20036;-71
2022/05/09 03:34:50;;;;;;;21.58;6.82;;;7.20;99.90;;;;;;5055423;28;20037;-71
2022/05/09 03:37:16;;;;;;;15.15;6.28;;;7.20;99.90;;;;;;5055360;28;20041;-71
2022/05/09 03:39:41;;;;;;;19.90;6.30;;;7.10;99.90;;;;;;5055119;28;20052;-71
2022/05/09 03:42:07;;;;;;;14.73;6.00;;;7.20;99.90;;;;;;5055254;28;20060;-71
2022/05/09 03:44:33;;;;;;;14.00;5.82;;;7.20;99.90;;;;;;5053689;28;20497;-70
2022/05/09 03:46:58;;;;;;;20.73;6.50;;;7.20;99.90;;;;;;5055067;28;20056;-71
2022/05/09 03:49:25;;;;;;;15.48;6.32;;;7.20;99.90;;;;;;5055356;28;20063;-71
2022/05/09 03:51:50;;;;;;;15.68;6.60;;;7.20;99.90;;;;;;5053549;28;20045;-71
2022/05/09 03:54:16;;;;;;;20.67;7.82;;;7.30;99.90;;;;;;5053096;28;20100;-71
2022/05/09 03:56:42;;;;;;;17.70;6.05;;;7.30;99.90;;;;;;5053396;28;20156;-71
2022/05/09 03:59:08;;;;;;;13.75;6.07;;;7.30;99.90;;;;;;5053835;28;20111;-71
2022/05/09 04:01:34;;;;;;;13.30;5.45;;;7.20;99.90;;;;;;5054614;28;20162;-71
2022/05/09 04:04:00;;;;;;;15.32;6.80;;;7.20;99.90;;;;;;5037219;28;20116;-71
2022/05/09 04:06:26;;;;;;;16.85;6.72;;;7.20;99.90;;;;;;5055438;28;20060;-71
2022/05/09 04:08:52;;;;;;;15.85;6.88;;;7.30;99.90;;;;;;5054755;28;20041;-71
2022/05/09 04:11:18;;;;;;;17.48;7.07;;;7.20;99.90;;;;;;5054778;28;20037;-71
2022/05/09 04:13:43;;;;;;;17.60;8.02;;;7.30;99.90;;;;;;5054599;28;20047;-71
2022/05/09 04:18:56;;;;;;;21.35;7.13;;;7.30;99.90;;;;;;5054835;28;20044;-72
2022/05/09 04:21:22;;;;;;;20.42;8.48;;;7.30;99.90;;;;;;5054695;28;20041;-71
2022/05/09 04:23:49;;;;;;;18.08;6.43;;;7.30;99.90;;;;;;5054574;28;20119;-71
2022/05/09 04:26:16;;;;;;;18.40;7.28;;;7.30;99.90;;;;;;5053139;28;20120;-71
2022/05/09 04:28:42;;;;;;;24.73;7.97;;;7.30;99.90;;;;;;5055141;28;20541;-71
2022/05/09 04:31:08;;;;;;;13.55;6.97;;;7.40;99.90;;;;;;5052961;28;20044;-71
2022/05/09 04:33:33;;;;;;;14.65;7.20;;;7.40;99.90;;;;;;5054677;28;20399;-72
2022/05/09 04:35:59;;;;;;;16.52;8.00;;;7.50;99.90;;;;;;5054440;28;20048;-71
2022/05/09 04:38:26;;;;;;;17.92;6.80;;;7.60;99.90;;;;;;5053798;28;20041;-71
2022/05/09 04:40:54;;;;;;;16.10;7.40;;;7.60;99.90;;;;;;5057676;28;20391;-72
2022/05/09 04:43:24;;;;;;;13.48;6.45;;;7.60;99.90;;;;;;5057299;28;20036;-71
2022/05/09 04:45:50;;;;;;;19.48;7.45;;;7.70;99.90;;;;;;5048736;28;20399;-71
2022/05/09 04:48:18;;;;;;;15.30;7.72;;;7.70;99.90;;;;;;5040782;28;20127;-72
2022/05/09 04:50:44;;;;;;;24.98;8.52;;;7.80;99.90;;;;;;5036533;28;20041;-72
2022/05/09 04:53:09;;;;;;;25.95;9.63;;;7.90;99.90;;;;;;5038272;28;20037;-72
2022/05/09 04:55:35;;;;;;;26.13;7.63;;;8.00;99.90;;;;;;5037303;28;20384;-71
2022/05/09 04:58:00;;;;;;;18.73;7.75;;;8.10;99.90;;;;;;5036204;28;20091;-69
2022/05/09 05:00:27;;;;;;;16.10;7.82;;;8.20;99.90;;;;;;5036529;28;20052;-71
2022/05/09 05:02:54;;;;;;;20.92;7.80;;;8.40;99.90;;;;;;5037889;28;20093;-70
2022/05/09 05:05:21;;;;;;;24.42;8.68;;;8.60;99.90;;;;;;5036429;28;20441;-71
2022/05/09 05:07:48;;;;;;;21.90;7.85;;;8.80;99.90;;;;;;5037651;28;20056;-71
2022/05/09 05:10:14;;;;;;;17.40;7.88;;;8.90;99.90;;;;;;5037675;28;20526;-71
2022/05/09 05:12:40;;;;;;;24.00;8.43;;;9.10;99.90;;;;;;5037886;28;20041;-71
2022/05/09 05:15:07;;;;;;;21.83;7.72;;;9.20;99.90;;;;;;5037468;28;20521;-70
2022/05/09 05:17:33;;;;;;;21.48;8.30;;;9.40;99.90;;;;;;5045188;28;20118;-71
2022/05/09 05:20:00;;;;;;;16.60;8.18;;;9.60;99.90;;;;;;5040036;28;20404;-71
2022/05/09 05:22:26;;;;;;;13.57;7.20;;;9.90;99.90;;;;;;5037489;28;20041;-70
2022/05/09 05:24:54;;;;;;;17.20;8.10;;;10.10;99.90;;;;;;5036526;28;20043;-71
2022/05/09 05:27:23;;;;;;;16.15;7.70;;;10.20;99.90;;;;;;5019671;28;20052;-71
2022/05/09 05:29:49;;;;;;;19.58;8.38;;;10.30;99.90;;;;;;5037249;28;20046;-70
2022/05/09 05:32:21;;;;;;;17.75;7.18;;;10.40;99.90;;;;;;5036446;28;20127;-70
2022/05/09 05:34:48;;;;;;;17.35;6.75;;;10.60;99.90;;;;;;5037836;28;20065;-70
2022/05/09 05:37:15;;;;;;;19.65;7.85;;;10.80;99.90;;;;;;5037106;28;20046;-70
2022/05/09 05:39:41;;;;;;;14.85;6.97;;;10.90;99.90;;;;;;5037200;28;20076;-70
2022/05/09 05:42:08;;;;;;;20.52;7.43;;;11.00;99.90;;;;;;5036712;28;20438;-73
2022/05/09 05:44:35;;;;;;;26.08;7.38;;;11.10;99.90;;;;;;5038086;28;20120;-73
2022/05/09 05:47:05;;;;;;;18.98;7.15;;;11.30;99.90;;;;;;5037693;28;20044;-73
2022/05/09 05:49:32;;;;;;;17.73;7.53;;;11.50;99.90;;;;;;5037854;28;20413;-73
2022/05/09 05:52:02;;;;;;;15.98;7.35;;;11.60;99.90;;;;;;5036103;28;20113;-73
2022/05/09 05:54:28;;;;;;;13.82;6.32;;;11.60;99.90;;;;;;5037631;28;20117;-73
2022/05/09 05:56:53;;;;;;;16.38;6.88;;;11.90;99.90;;;;;;5072637;22;20076;-67
2022/05/09 05:59:19;;;;;;;15.07;6.65;;;12.20;99.90;;;;;;5053949;28;20072;-67
2022/05/09 06:01:44;;;;;;;16.10;6.50;;;12.30;99.90;;;;;;5054023;28;20037;-67
2022/05/09 06:04:10;;;;;;;17.50;6.78;;;12.40;99.90;;;;;;5053982;28;20080;-67
2022/05/09 06:06:35;;;;;;;16.55;6.85;;;12.50;99.90;;;;;;5053227;28;20037;-67
2022/05/09 06:09:01;;;;;;;15.18;6.50;;;12.70;99.90;;;;;;5054205;28;20044;-67
2022/05/09 06:11:27;;;;;;;12.35;6.18;;;12.80;99.90;;;;;;5053545;28;20045;-67
2022/05/09 06:13:56;;;;;;;19.90;7.38;;;13.00;99.90;;;;;;5053709;28;20033;-67
2022/05/09 06:16:21;;;;;;;19.88;7.55;;;13.10;99.90;;;;;;5053804;28;20029;-67
2022/05/09 06:18:51;;;;;;;21.08;6.75;;;13.40;99.90;;;;;;5053911;28;20040;-67
2022/05/09 06:21:17;;;;;;;18.80;7.28;;;13.40;99.90;;;;;;5053411;28;20041;-67
2022/05/09 06:23:43;;;;;;;17.98;6.25;;;13.80;99.90;;;;;;5053542;28;20029;-67
2022/05/09 06:26:08;;;;;;;16.88;6.50;;;13.80;99.70;;;;;;5053433;28;20041;-67
2022/05/09 06:28:34;;;;;;;23.17;7.32;;;13.90;98.40;;;;;;5053409;28;20228;-67
2022/05/09 06:31:01;;;;;;;19.02;5.95;;;14.00;98.80;;;;;;5053392;28;20115;-67
2022/05/09 06:33:26;;;;;;;14.48;6.20;;;14.10;98.70;;;;;;5053579;28;20041;-67
2022/05/09 06:35:53;;;;;;;26.42;7.85;;;14.20;97.30;;;;;;5053329;28;20037;-67
2022/05/09 06:38:19;;;;;;;12.32;5.07;;;14.40;97.10;;;;;;5052135;28;20049;-67
2022/05/09 06:40:45;;;;;;;14.77;6.10;;;14.60;96.10;;;;;;5052996;28;20045;-67
2022/05/09 06:43:11;;;;;;;18.92;6.88;;;14.90;94.70;;;;;;5053168;28;20565;-68
2022/05/09 06:45:37;;;;;;;14.43;6.43;;;14.80;93.10;;;;;;5053104;28;20155;-67
2022/05/09 06:48:03;;;;;;;14.55;6.47;;;14.80;92.60;;;;;;5053296;28;20037;-68
2022/05/09 06:50:32;;;;;;;19.35;5.80;;;14.70;92.40;;;;;;5052788;28;20559;-68
2022/05/09 06:52:59;;;;;;;18.38;6.57;;;15.10;91.20;;;;;;5053148;28;20108;-68
2022/05/09 06:55:24;;;;;;;22.50;6.72;;;15.20;90.90;;;;;;5052553;28;20495;-68
2022/05/09 06:57:50;;;;;;;17.55;6.60;;;15.30;89.50;;;;;;5053239;28;20072;-68
2022/05/09 07:00:20;;;;;;;16.48;6.00;;;15.70;88.30;;;;;;5052518;28;20537;-68
2022/05/09 07:02:46;;;;;;;19.88;7.50;;;15.90;85.80;;;;;;5053010;28;20040;-68
2022/05/09 07:05:15;;;;;;;17.73;7.10;;;16.10;83.60;;;;;;5052605;28;20040;-68
2022/05/09 07:07:42;;;;;;;15.10;5.10;;;16.30;78.10;;;;;;5052756;28;20045;-68
2022/05/09 07:10:08;;;;;;;13.10;5.13;;;16.50;76.50;;;;;;5052273;28;20033;-68
2022/05/09 07:12:49;;;;;;;14.52;5.35;;;16.50;74.40;;;;;;5052817;28;20036;-68
2022/05/09 07:15:22;;;;;;;12.77;4.53;;;16.70;71.00;;;;;;5052650;28;20097;-67
2022/05/09 07:17:50;;;;;;;;;;;16.70;70.80;;;;;;5052030;28;20067;-68
2022/05/09 07:20:16;;;;;;;11.25;4.82;;;16.60;67.80;;;;;;5052304;28;19924;-68
2022/05/09 07:22:42;;;;;;;13.05;5.00;;;17.10;70.90;;;;;;5051514;28;20053;-68
2022/05/09 07:25:13;;;;;;;19.63;5.82;;;17.20;69.00;;;;;;5052414;28;20044;-68
2022/05/09 07:27:39;;;;;;;13.65;5.22;;;17.40;67.10;;;;;;5052364;28;20045;-68
2022/05/09 07:30:05;;;;;;;12.05;5.13;;;17.70;67.20;;;;;;5052284;28;20041;-68
2022/05/09 07:32:30;;;;;;;10.52;4.97;;;17.70;64.20;;;;;;5051670;28;20398;-68
2022/05/09 07:34:56;;;;;;;14.27;4.65;;;17.90;64.90;;;;;;5051639;28;20047;-68
2022/05/09 07:37:22;;;;;;;14.38;6.00;;;18.20;64.40;;;;;;5051823;28;20583;-68
2022/05/09 07:39:48;;;;;;;15.65;4.53;;;18.20;62.00;;;;;;5052395;28;20036;-68
2022/05/09 07:42:13;;;;;;;15.95;6.18;;;18.40;62.00;;;;;;5052031;28;20124;-68
2022/05/09 07:44:39;;;;;;;11.70;4.32;;;18.70;59.40;;;;;;5052171;28;20037;-68
2022/05/09 07:47:05;;;;;;;14.05;4.40;;;18.80;59.20;;;;;;5052012;28;20566;-69
2022/05/09 07:49:30;;;;;;;13.02;4.97;;;19.10;57.90;;;;;;5052047;28;20375;-68
2022/05/09 07:51:56;;;;;;;14.32;4.80;;;19.10;56.60;;;;;;5051613;28;20047;-68
2022/05/09 07:54:22;;;;;;;9.65;4.60;;;19.30;57.00;;;;;;5052130;28;20056;-68
2022/05/09 07:56:47;;;;;;;8.65;3.90;;;19.50;57.20;;;;;;5051736;28;20384;-68
2022/05/09 07:59:13;;;;;;;11.10;4.28;;;19.70;54.70;;;;;;5051826;28;20040;-68
2022/05/09 08:01:39;;;;;;;13.98;5.13;;;19.60;54.20;;;;;;5050423;28;20041;-68
2022/05/09 08:04:05;;;;;;;10.15;4.45;;;19.60;54.30;;;;;;5050525;28;20438;-68
2022/05/09 08:06:30;;;;;;;12.43;4.85;;;19.80;53.70;;;;;;5051850;28;20494;-68
2022/05/09 08:08:56;;;;;;;11.95;4.25;;;19.80;53.70;;;;;;5050462;28;20033;-68
2022/05/09 08:11:22;;;;;;;14.57;4.70;;;19.70;53.60;;;;;;5051501;28;20102;-68
2022/05/09 08:13:48;;;;;;;13.65;4.35;;;19.80;54.10;;;;;;5051694;28;20392;-69
2022/05/09 08:16:14;;;;;;;11.05;4.45;;;20.20;54.60;;;;;;5051389;28;20037;-69
2022/05/09 08:18:40;;;;;;;11.85;4.15;;;20.30;53.40;;;;;;5051684;28;20044;-68
2022/05/09 08:21:09;;;;;;;14.05;4.68;;;20.30;51.70;;;;;;5051213;28;20037;-68
2022/05/09 08:23:35;;;;;;;10.88;4.88;;;20.30;51.40;;;;;;5051664;28;20044;-69
2022/05/09 08:26:03;;;;;;;12.15;5.35;;;20.50;52.40;;;;;;5051540;28;20044;-68
2022/05/09 08:28:29;;;;;;;10.98;4.05;;;20.80;52.50;;;;;;5051557;28;20037;-69
2022/05/09 08:30:55;;;;;;;13.85;4.13;;;20.90;51.60;;;;;;5051228;28;20080;-69
2022/05/09 08:33:26;;;;;;;12.07;4.18;;;20.70;50.80;;;;;;5051453;28;20115;-69
2022/05/09 08:35:53;;;;;;;14.52;4.60;;;20.80;48.60;;;;;;5051565;28;20048;-68
2022/05/09 08:38:20;;;;;;;7.50;3.65;;;20.80;49.70;;;;;;5051583;28;20281;-69
2022/05/09 08:41:11;;;;;;;10.57;4.50;;;21.00;48.50;;;;;;5051230;28;20037;-68
2022/05/09 08:44:15;;;;;;;11.32;3.40;;;21.40;48.00;;;;;;5051519;28;20040;-69
2022/05/09 08:46:58;;;;;;;11.18;3.67;;;21.10;45.50;;;;;;5051460;28;20044;-68
2022/05/09 08:50:01;;;;;;;8.73;3.97;;;20.80;47.80;;;;;;5051515;28;20060;-68
2022/05/09 08:52:42;;;;;;;13.07;3.70;;;21.30;49.40;;;;;;5051446;28;20044;-68
2022/05/09 08:55:09;;;;;;;15.93;4.57;;;21.20;47.50;;;;;;5051271;28;20033;-69
2022/05/09 08:57:44;;;;;;;10.48;3.72;;;21.30;47.00;;;;;;5051449;28;20041;-68
2022/05/09 09:00:15;;;;;;;11.13;3.80;;;21.30;45.20;;;;;;5050668;28;20460;-68
2022/05/09 09:02:46;;;;;;;8.73;3.20;;;21.40;44.00;;;;;;5051174;28;20418;-68
2022/05/09 09:05:19;;;;;;;13.32;4.07;;;21.60;44.30;;;;;;5051325;28;20037;-68
2022/05/09 09:07:50;;;;;;;12.00;3.42;;;21.60;45.00;;;;;;5051171;28;20449;-70
2022/05/09 09:10:24;;;;;;;8.52;3.75;;;21.90;43.90;;;;;;5050897;28;20048;-68
2022/05/09 09:13:22;;;;;;;9.88;4.22;;;21.60;43.30;;;;;;5050004;28;20048;-68
2022/05/09 09:16:25;;;;;;;8.43;3.25;;;22.20;43.40;;;;;;5051054;28;20120;-68
2022/05/09 09:19:16;;;;;;;11.00;3.85;;;22.10;42.10;;;;;;5051176;28;20041;-69
2022/05/09 09:22:03;;;;;;;11.40;3.63;;;21.90;42.80;;;;;;5050951;28;20038;-68
2022/05/09 09:24:50;;;;;;;11.13;3.83;;;21.90;42.40;;;;;;5051217;28;20406;-68
2022/05/09 09:27:37;;;;;;;11.18;3.30;;;21.90;40.10;;;;;;5052651;28;20045;-68
2022/05/09 09:30:11;;;;;;;9.10;3.10;;;21.60;39.10;;;;;;5054247;28;20572;-68
2022/05/09 09:32:57;;;;;;;9.80;3.30;;;21.70;40.50;;;;;;5054642;28;20501;-68
2022/05/09 09:35:26;;;;;;;10.55;3.67;;;21.60;40.70;;;;;;5054070;28;20061;-68
2022/05/09 09:37:59;;;;;;;10.82;3.67;;;21.70;41.00;;;;;;5054515;28;20056;-68
2022/05/09 09:40:24;;;;;;;9.02;2.95;;;21.90;40.30;;;;;;5054192;28;20079;-68
2022/05/09 09:42:54;;;;;;;7.47;2.67;;;22.00;42.10;;;;;;5054507;28;20441;-68
2022/05/09 09:45:31;;;;;;;13.60;3.80;;;22.00;40.10;;;;;;5054466;28;20037;-68
2022/05/09 09:48:13;;;;;;;9.73;3.28;;;21.90;38.70;;;;;;5054366;28;20045;-68
2022/05/09 09:50:55;;;;;;;9.33;3.17;;;21.80;37.60;;;;;;5053958;28;20317;-68
2022/05/09 09:53:57;;;;;;;8.73;3.45;;;21.60;37.10;;;;;;5054359;28;20287;-68
2022/05/09 09:56:22;;;;;;;14.65;3.90;;;21.20;36.60;;;;;;5054037;28;20047;-68
2022/05/09 09:59:08;;;;;;;8.95;3.38;;;21.00;38.50;;;;;;5053968;28;20120;-68
2022/05/09 10:01:34;;;;;;;8.30;2.95;;;21.20;38.40;;;;;;5043036;28;20059;-68
2022/05/09 10:04:09;;;;;;;8.60;3.17;;;21.00;38.00;;;;;;5054121;28;20071;-68
2022/05/09 10:06:58;;;;;;;7.63;3.17;;;21.10;36.80;;;;;;5053957;28;20047;-68
2022/05/09 10:09:26;;;;;;;8.27;3.80;;;20.90;37.90;;;;;;5043693;28;20057;-68
2022/05/09 10:11:51;;;;;;;8.32;2.90;;;21.10;38.10;;;;;;5053702;28;20090;-68
2022/05/09 10:14:35;;;;;;;11.95;3.67;;;21.00;37.60;;;;;;5053983;28;20398;-68
2022/05/09 10:17:29;;;;;;;8.52;2.90;;;20.90;37.30;;;;;;5053734;28;20052;-68
2022/05/09 10:19:55;;;;;;;;;;;21.20;39.30;;;;;;5053854;28;20076;-68
2022/05/09 10:25:22;;;;;;;7.20;2.75;;;21.20;38.30;;;;;;5053400;28;20053;-68
2022/05/09 10:28:21;;;;;;;8.10;3.25;;;21.40;39.40;;;;;;5053566;28;20048;-68
2022/05/09 10:30:54;;;;;;;9.30;3.17;;;21.50;38.60;;;;;;5020550;28;20450;-68
2022/05/09 10:33:40;;;;;;;;;;;21.30;38.90;;;;;;5054042;28;20043;-68
2022/05/09 10:36:28;;;;;;;9.40;3.15;;;21.40;38.70;;;;;;5053435;28;19916;-68
2022/05/09 10:39:12;;;;;;;6.50;3.38;;;21.10;38.40;;;;;;5053126;28;20076;-68
2022/05/09 10:41:45;;;;;;;10.20;2.97;;;21.00;38.20;;;;;;5054508;28;20495;-69
2022/05/09 10:44:44;;;;;;;7.63;3.17;;;21.10;38.90;;;;;;5052151;28;20137;-68
2022/05/09 10:47:21;;;;;;;9.07;3.22;;;21.10;38.70;;;;;;5053134;28;20041;-68
2022/05/09 10:49:54;;;;;;;7.40;2.20;;;21.30;39.60;;;;;;5052937;28;20033;-68
2022/05/09 10:52:34;;;;;;;10.02;2.35;;;21.30;39.30;;;;;;5051917;28;20049;-68
2022/05/09 10:55:10;;;;;;;5.97;2.70;;;21.20;39.00;;;;;;5051508;28;20410;-68
2022/05/09 10:58:10;;;;;;;6.60;2.38;;;21.40;40.20;;;;;;5053245;28;20056;-68
2022/05/09 11:00:41;;;;;;;8.90;2.47;;;21.60;40.30;;;;;;5032608;28;20056;-68
2022/05/09 11:03:34;;;;;;;10.15;2.70;;;21.50;41.20;;;;;;5050704;28;20091;-68
2022/05/09 11:06:21;;;;;;;5.82;2.40;;;21.70;39.30;;;;;;5050735;28;20384;-68
2022/05/09 11:09:08;;;;;;;9.88;2.75;;;21.90;40.50;;;;;;5034107;28;20037;-68
2022/05/09 11:11:48;;;;;;;5.97;2.13;;;21.90;40.50;;;;;;5032492;28;20377;-68
2022/05/09 11:14:25;;;;;;;8.63;2.60;;;21.80;38.10;;;;;;5032672;28;20450;-68
2022/05/09 11:17:31;;;;;;;5.97;2.38;;;21.80;38.70;;;;;;5042301;28;20033;-68
2022/05/09 11:20:35;;;;;;;7.43;2.65;;;21.80;41.00;;;;;;5040014;28;20106;-68
2022/05/09 11:23:26;;;;;;;7.35;2.50;;;21.80;45.40;;;;;;5032442;28;20029;-68
2022/05/09 11:26:22;;;;;;;7.65;2.45;;;21.80;39.30;;;;;;5032224;28;20388;-68
2022/05/09 11:29:05;;;;;;;5.60;2.72;;;21.80;39.20;;;;;;5032626;28;20041;-68
2022/05/09 11:31:44;;;;;;;6.38;2.30;;;21.90;43.00;;;;;;5032238;28;20037;-68
2022/05/09 11:34:25;;;;;;;4.95;2.20;;;22.00;41.80;;;;;;5032420;28;20049;-68
2022/05/09 11:37:12;;;;;;;10.40;2.72;;;21.90;41.80;;;;;;5032143;28;20044;-68
2022/05/09 11:39:59;;;;;;;6.40;2.67;;;21.90;40.60;;;;;;5031117;28;20530;-68
2022/05/09 11:45:28;;;;;;;7.10;2.38;;;21.80;43.40;;;;;;5031974;28;20045;-68
2022/05/09 11:48:19;;;;;;;6.63;2.53;;;21.60;42.20;;;;;;5032064;28;20542;-68
2022/05/09 11:51:03;;;;;;;7.25;2.40;;;21.60;42.00;;;;;;5031081;28;20284;-68
2022/05/09 11:53:33;;;;;;;7.50;2.45;;;21.70;41.10;;;;;;5031668;28;20084;-68
2022/05/09 11:56:05;;;;;;;12.75;2.72;;;21.80;41.40;;;;;;5030378;28;20112;-68
2022/05/09 11:58:34;;;;;;;9.13;2.72;;;21.90;41.90;;;;;;5044613;28;20041;-68
2022/05/09 12:01:00;;;;;;;13.65;3.05;;;21.70;44.60;;;;;;5051148;28;20044;-68
2022/05/09 12:03:40;;;;;;;12.35;3.25;;;21.70;43.50;;;;;;5050349;28;20110;-67
2022/05/09 12:06:26;;;;;;;12.05;2.53;;;21.80;42.10;;;;;;5050871;28;20043;-68
2022/05/09 12:08:53;;;;;;;7.00;2.35;;;21.80;42.10;;;;;;5050472;28;20041;-68
2022/05/09 12:11:24;;;;;;;11.70;2.28;;;21.90;42.80;;;;;;5051458;28;20052;-68
2022/05/09 12:13:51;;;;;;;9.25;2.45;;;21.80;42.50;;;;;;5050564;28;20041;-69
2022/05/09 12:16:35;;;;;;;7.30;2.22;;;21.70;43.60;;;;;;5051681;28;20060;-69
2022/05/09 12:19:03;;;;;;;7.25;2.38;;;21.70;41.40;;;;;;5051847;28;20044;-68
2022/05/09 12:21:37;;;;;;;10.07;2.88;;;21.80;44.70;;;;;;5045106;28;20414;-68
2022/05/09 12:24:14;;;;;;;7.10;2.45;;;21.90;44.30;;;;;;5040327;28;20042;-68
2022/05/09 12:26:43;;;;;;;9.10;3.10;;;21.90;44.00;;;;;;5040049;28;20051;-68
2022/05/09 12:29:11;;;;;;;6.00;2.13;;;22.00;42.20;;;;;;5038669;28;20121;-69
2022/05/09 12:31:57;;;;;;;6.90;2.75;;;22.00;44.00;;;;;;5029992;28;20522;-69
2022/05/09 12:34:43;;;;;;;5.15;2.13;;;21.80;43.50;;;;;;5029672;28;20158;-69
2022/05/09 12:37:12;;;;;;;7.15;2.05;;;21.50;41.10;;;;;;5030118;28;20057;-68
2022/05/09 12:39:48;;;;;;;4.53;2.13;;;21.50;41.70;;;;;;5030275;28;20045;-69
2022/05/09 12:42:25;;;;;;;6.20;2.22;;;21.50;42.60;;;;;;5031387;28;20038;-69
2022/05/09 12:44:53;;;;;;;5.70;2.15;;;21.60;45.10;;;;;;5031592;28;20053;-69
2022/05/09 12:47:29;;;;;;;9.70;2.42;;;21.70;46.00;;;;;;5031528;28;20069;-69
2022/05/09 12:50:08;;;;;;;8.40;2.30;;;21.70;42.90;;;;;;5031157;28;20049;-69
2022/05/09 12:52:41;;;;;;;9.90;2.60;;;21.70;43.90;;;;;;5031509;28;20040;-69
2022/05/09 12:57:51;;;;;;;5.25;2.40;;;21.80;43.90;;;;;;5031331;28;20045;-69
2022/05/09 13:00:22;;;;;;;6.93;1.95;;;21.80;44.10;;;;;;5030074;28;20573;-69
2022/05/09 13:02:48;;;;;;;5.55;1.80;;;21.90;44.70;;;;;;5035526;28;20381;-69
2022/05/09 13:05:15;;;;;;;4.22;1.90;;;22.10;45.30;;;;;;5035201;28;20103;-69
2022/05/09 13:07:58;;;;;;;4.40;1.65;;;22.20;43.80;;;;;;5033976;28;20037;-69
2022/05/09 13:10:24;;;;;;;;;;;22.40;43.20;;;;;;5035276;28;20040;-69
2022/05/09 13:12:58;;;;;;;5.97;2.50;;;22.40;41.10;;;;;;5035090;28;19921;-69
2022/05/09 13:15:24;;;;;;;9.18;2.25;;;22.60;42.30;;;;;;5035164;28;20044;-69
2022/05/09 13:17:58;;;;;;;4.25;1.58;;;22.70;42.10;;;;;;5035094;28;20095;-69
2022/05/09 13:20:28;;;;;;;5.70;1.88;;;22.70;42.40;;;;;;5017158;28;20137;-69